SWR8QE LSZH-EBBR
Flight info
| Callsign | SWR8QE |
|---|---|
| Flight time | 0h 55m |
| Altitude | 30000 |
| Route | VEBIT T10 TORPA DCT EDOPI DCT GIVOR DCT SORAL DCT IBERA DCT DIK Y37 BATTY |
| Aircraft | A320/M-SDE2E3FGIRWXY/L |
Departure
| Time | 2026-05-07 15:28 |
|---|---|
| Airport | Zürich Airport (LSZH) |
Arrival
| Time | 2026-05-07 16:23 |
|---|---|
| Airport | Brussels Airport (EBBR) |
| Time | Latitude | Longitude | Altitude | Speed | Heading |
|---|---|---|---|---|---|
| 2026-05-07 14:32 | 47.45423 | 8.55746 | 1397 ft | 0 kts | 186° |
| 2026-05-07 14:50 | 47.45423 | 8.55747 | 1397 ft | 0 kts | 186° |
| 2026-05-07 14:50 | 47.45423 | 8.55746 | 1397 ft | 0 kts | 186° |
| 2026-05-07 14:51 | 47.45423 | 8.55747 | 1397 ft | 0 kts | 186° |
| 2026-05-07 15:00 | 47.45424 | 8.55747 | 1397 ft | 0 kts | 186° |
| 2026-05-07 15:14 | 47.45435 | 8.55748 | 1406 ft | 4 kts | 183° |
| 2026-05-07 15:14 | 47.45462 | 8.55748 | 1404 ft | 4 kts | 173° |
| 2026-05-07 15:14 | 47.45489 | 8.55741 | 1401 ft | 4 kts | 158° |
| 2026-05-07 15:14 | 47.45509 | 8.55721 | 1406 ft | 4 kts | 111° |
| 2026-05-07 15:15 | 47.45512 | 8.55711 | 1403 ft | 0 kts | 96° |
| 2026-05-07 15:19 | 47.45512 | 8.55713 | 1403 ft | 2 kts | 96° |
| 2026-05-07 15:19 | 47.45509 | 8.55756 | 1402 ft | 4 kts | 96° |
| 2026-05-07 15:19 | 47.45506 | 8.55795 | 1400 ft | 3 kts | 96° |
| 2026-05-07 15:20 | 47.45504 | 8.55823 | 1404 ft | 2 kts | 96° |
| 2026-05-07 15:20 | 47.45503 | 8.55840 | 1405 ft | 1 kts | 96° |
| 2026-05-07 15:20 | 47.45502 | 8.55845 | 1407 ft | 0 kts | 96° |
| 2026-05-07 15:21 | 47.45502 | 8.55853 | 1406 ft | 3 kts | 96° |
| 2026-05-07 15:21 | 47.45498 | 8.55904 | 1399 ft | 7 kts | 96° |
| 2026-05-07 15:21 | 47.45492 | 8.55993 | 1397 ft | 9 kts | 96° |
| 2026-05-07 15:21 | 47.45485 | 8.56089 | 1397 ft | 11 kts | 96° |
| 2026-05-07 15:22 | 47.45486 | 8.56227 | 1397 ft | 15 kts | 65° |
| 2026-05-07 15:22 | 47.45549 | 8.56345 | 1397 ft | 14 kts | 50° |
| 2026-05-07 15:22 | 47.45594 | 8.56467 | 1400 ft | 13 kts | 86° |
| 2026-05-07 15:22 | 47.45586 | 8.56591 | 1397 ft | 11 kts | 96° |
| 2026-05-07 15:23 | 47.45579 | 8.56698 | 1397 ft | 10 kts | 95° |
| 2026-05-07 15:23 | 47.45573 | 8.56791 | 1402 ft | 8 kts | 96° |
| 2026-05-07 15:23 | 47.45566 | 8.56871 | 1397 ft | 7 kts | 96° |
| 2026-05-07 15:23 | 47.45562 | 8.56925 | 1397 ft | 0 kts | 96° |
| 2026-05-07 15:25 | 47.45560 | 8.56949 | 1401 ft | 5 kts | 93° |
| 2026-05-07 15:26 | 47.45586 | 8.57008 | 1405 ft | 9 kts | 33° |
| 2026-05-07 15:26 | 47.45658 | 8.57022 | 1397 ft | 8 kts | 334° |
| 2026-05-07 15:26 | 47.45663 | 8.56993 | 1400 ft | 0 kts | 278° |
| 2026-05-07 15:27 | 47.45681 | 8.56770 | 1403 ft | 58 kts | 277° |
| 2026-05-07 15:27 | 47.45746 | 8.55829 | 1401 ft | 123 kts | 276° |
| 2026-05-07 15:27 | 47.45848 | 8.54326 | 1565 ft | 156 kts | 277° |
| 2026-05-07 15:28 | 47.45928 | 8.52780 | 2268 ft | 150 kts | 276° |
| 2026-05-07 15:28 | 47.46032 | 8.51250 | 2929 ft | 149 kts | 277° |
| 2026-05-07 15:28 | 47.46151 | 8.49665 | 3309 ft | 166 kts | 276° |
| 2026-05-07 15:28 | 47.46145 | 8.47834 | 3438 ft | 196 kts | 251° |
| 2026-05-07 15:29 | 47.45238 | 8.46201 | 3711 ft | 223 kts | 217° |
| 2026-05-07 15:29 | 47.43987 | 8.44655 | 4129 ft | 246 kts | 228° |
| 2026-05-07 15:29 | 47.42841 | 8.42654 | 4782 ft | 261 kts | 233° |
| 2026-05-07 15:29 | 47.41744 | 8.40500 | 5725 ft | 265 kts | 235° |
| 2026-05-07 15:30 | 47.40669 | 8.38274 | 6752 ft | 268 kts | 236° |
| 2026-05-07 15:30 | 47.39597 | 8.36012 | 7656 ft | 270 kts | 236° |
| 2026-05-07 15:30 | 47.38585 | 8.33619 | 8591 ft | 273 kts | 243° |
| 2026-05-07 15:30 | 47.37727 | 8.31154 | 9575 ft | 275 kts | 243° |
| 2026-05-07 15:31 | 47.36827 | 8.28598 | 10383 ft | 283 kts | 243° |
| 2026-05-07 15:31 | 47.35877 | 8.25915 | 10655 ft | 307 kts | 243° |
| 2026-05-07 15:31 | 47.34859 | 8.23049 | 11031 ft | 323 kts | 242° |
| 2026-05-07 15:31 | 47.33799 | 8.20073 | 11702 ft | 330 kts | 242° |
| 2026-05-07 15:32 | 47.32729 | 8.17067 | 12466 ft | 333 kts | 242° |
| 2026-05-07 15:32 | 47.31643 | 8.14020 | 13234 ft | 337 kts | 242° |
| 2026-05-07 15:32 | 47.30548 | 8.10952 | 13987 ft | 341 kts | 242° |
| 2026-05-07 15:32 | 47.29437 | 8.07838 | 14634 ft | 344 kts | 242° |
| 2026-05-07 15:33 | 47.28334 | 8.04681 | 15281 ft | 348 kts | 245° |
| 2026-05-07 15:33 | 47.27558 | 8.01291 | 15906 ft | 353 kts | 257° |
| 2026-05-07 15:33 | 47.27275 | 7.97687 | 16536 ft | 357 kts | 269° |
| 2026-05-07 15:33 | 47.27495 | 7.94026 | 17180 ft | 361 kts | 277° |
| 2026-05-07 15:34 | 47.27856 | 7.90350 | 17834 ft | 365 kts | 277° |
| 2026-05-07 15:34 | 47.27973 | 7.89150 | 18045 ft | 366 kts | 277° |
| 2026-05-07 15:34 | 47.28234 | 7.86448 | 18482 ft | 368 kts | 277° |
| 2026-05-07 15:34 | 47.28592 | 7.82697 | 19043 ft | 371 kts | 277° |
| 2026-05-07 15:35 | 47.28949 | 7.78917 | 19606 ft | 374 kts | 277° |
| 2026-05-07 15:35 | 47.29307 | 7.75108 | 20185 ft | 377 kts | 277° |
| 2026-05-07 15:35 | 47.29665 | 7.71261 | 20753 ft | 380 kts | 277° |
| 2026-05-07 15:35 | 47.30023 | 7.67400 | 21322 ft | 383 kts | 277° |
| 2026-05-07 15:36 | 47.30414 | 7.63505 | 21873 ft | 386 kts | 281° |
| 2026-05-07 15:36 | 47.31145 | 7.59672 | 22417 ft | 390 kts | 287° |
| 2026-05-07 15:36 | 47.31985 | 7.55862 | 22951 ft | 393 kts | 287° |
| 2026-05-07 15:36 | 47.32828 | 7.52023 | 23478 ft | 395 kts | 287° |
| 2026-05-07 15:37 | 47.33674 | 7.48150 | 23928 ft | 398 kts | 287° |
| 2026-05-07 15:37 | 47.34518 | 7.44263 | 24381 ft | 400 kts | 287° |
| 2026-05-07 15:37 | 47.35363 | 7.40351 | 24833 ft | 401 kts | 286° |
| 2026-05-07 15:37 | 47.36208 | 7.36424 | 25273 ft | 402 kts | 286° |
| 2026-05-07 15:38 | 47.36780 | 7.33765 | 25568 ft | 403 kts | 286° |
| 2026-05-07 15:38 | 47.37632 | 7.29811 | 25979 ft | 405 kts | 287° |
| 2026-05-07 15:38 | 47.38489 | 7.25834 | 26391 ft | 407 kts | 287° |
| 2026-05-07 15:38 | 47.39344 | 7.21851 | 26789 ft | 408 kts | 287° |
| 2026-05-07 15:39 | 47.40200 | 7.17852 | 27195 ft | 410 kts | 287° |
| 2026-05-07 15:39 | 47.40967 | 7.13799 | 27589 ft | 411 kts | 282° |
| 2026-05-07 15:39 | 47.41576 | 7.09675 | 27964 ft | 412 kts | 282° |
| 2026-05-07 15:39 | 47.42186 | 7.05528 | 28338 ft | 414 kts | 282° |
| 2026-05-07 15:40 | 47.42796 | 7.01372 | 28681 ft | 415 kts | 282° |
| 2026-05-07 15:40 | 47.43410 | 6.97195 | 29040 ft | 417 kts | 282° |
| 2026-05-07 15:40 | 47.44020 | 6.92997 | 29367 ft | 418 kts | 282° |
| 2026-05-07 15:40 | 47.44630 | 6.88788 | 29683 ft | 420 kts | 282° |
| 2026-05-07 15:41 | 47.45244 | 6.84552 | 29958 ft | 422 kts | 282° |
| 2026-05-07 15:41 | 47.45855 | 6.80342 | 30025 ft | 414 kts | 282° |
| 2026-05-07 15:41 | 47.47646 | 6.72435 | 30022 ft | 407 kts | 300° |
| 2026-05-07 15:42 | 47.49387 | 6.69135 | 30029 ft | 409 kts | 313° |
| 2026-05-07 15:42 | 47.51642 | 6.66541 | 30028 ft | 414 kts | 327° |
| 2026-05-07 15:42 | 47.54282 | 6.64817 | 30038 ft | 419 kts | 341° |
| 2026-05-07 15:42 | 47.57163 | 6.64007 | 30044 ft | 423 kts | 349° |
| 2026-05-07 15:43 | 47.62999 | 6.62842 | 30034 ft | 424 kts | 349° |
| 2026-05-07 15:43 | 47.68839 | 6.61677 | 30036 ft | 423 kts | 349° |
| 2026-05-07 15:44 | 47.74681 | 6.60504 | 30035 ft | 423 kts | 349° |
| 2026-05-07 15:44 | 47.80516 | 6.59322 | 30028 ft | 423 kts | 349° |
| 2026-05-07 15:45 | 47.86381 | 6.58131 | 30034 ft | 423 kts | 349° |
| 2026-05-07 15:45 | 47.92213 | 6.56944 | 30035 ft | 422 kts | 349° |
| 2026-05-07 15:46 | 48.00917 | 6.54954 | 30031 ft | 422 kts | 348° |
| 2026-05-07 15:47 | 48.06703 | 6.53518 | 30030 ft | 421 kts | 348° |
| 2026-05-07 15:47 | 48.12493 | 6.52096 | 30032 ft | 421 kts | 348° |
| 2026-05-07 15:48 | 48.18287 | 6.50698 | 30035 ft | 422 kts | 348° |
| 2026-05-07 15:48 | 48.24074 | 6.49310 | 30035 ft | 422 kts | 348° |
| 2026-05-07 15:49 | 48.29870 | 6.47909 | 30033 ft | 422 kts | 348° |
| 2026-05-07 15:49 | 48.35661 | 6.46506 | 30034 ft | 422 kts | 348° |
| 2026-05-07 15:50 | 48.41454 | 6.45099 | 30035 ft | 422 kts | 348° |
| 2026-05-07 15:50 | 48.47245 | 6.43692 | 30034 ft | 421 kts | 348° |
| 2026-05-07 15:51 | 48.53073 | 6.42270 | 30036 ft | 422 kts | 348° |
| 2026-05-07 15:51 | 48.58870 | 6.40858 | 30034 ft | 422 kts | 348° |
| 2026-05-07 15:52 | 48.64678 | 6.39474 | 30035 ft | 423 kts | 352° |
| 2026-05-07 15:52 | 48.70586 | 6.39605 | 30035 ft | 426 kts | 1° |
| 2026-05-07 15:53 | 48.76505 | 6.40209 | 30039 ft | 427 kts | 1° |
| 2026-05-07 15:53 | 48.82432 | 6.40818 | 30043 ft | 427 kts | 1° |
| 2026-05-07 15:54 | 48.88366 | 6.41418 | 30046 ft | 427 kts | 1° |
| 2026-05-07 15:54 | 48.94299 | 6.42020 | 30048 ft | 427 kts | 1° |
| 2026-05-07 15:55 | 49.00233 | 6.42629 | 30052 ft | 428 kts | 1° |
| 2026-05-07 15:55 | 49.06173 | 6.43240 | 30051 ft | 428 kts | 1° |
| 2026-05-07 15:56 | 49.12100 | 6.43244 | 30055 ft | 424 kts | 349° |
| 2026-05-07 15:56 | 49.17806 | 6.41129 | 30052 ft | 422 kts | 342° |
| 2026-05-07 15:57 | 49.23483 | 6.38802 | 30046 ft | 422 kts | 343° |
| 2026-05-07 15:57 | 49.29157 | 6.36476 | 30039 ft | 422 kts | 343° |
| 2026-05-07 15:58 | 49.34827 | 6.34139 | 30044 ft | 422 kts | 343° |
| 2026-05-07 15:58 | 49.40505 | 6.31798 | 30043 ft | 422 kts | 343° |
| 2026-05-07 15:59 | 49.46175 | 6.29442 | 30045 ft | 422 kts | 343° |
| 2026-05-07 15:59 | 49.51885 | 6.27067 | 30042 ft | 422 kts | 343° |
| 2026-05-07 16:00 | 49.57526 | 6.24753 | 30045 ft | 422 kts | 343° |
| 2026-05-07 16:00 | 49.63246 | 6.22422 | 29846 ft | 423 kts | 343° |
| 2026-05-07 16:00 | 49.66089 | 6.21254 | 29557 ft | 424 kts | 343° |
| 2026-05-07 16:01 | 49.68937 | 6.20080 | 29269 ft | 423 kts | 343° |
| 2026-05-07 16:01 | 49.71782 | 6.18910 | 28987 ft | 422 kts | 343° |
| 2026-05-07 16:01 | 49.74610 | 6.17749 | 28699 ft | 421 kts | 343° |
| 2026-05-07 16:01 | 49.77435 | 6.16586 | 28423 ft | 419 kts | 343° |
| 2026-05-07 16:02 | 49.80247 | 6.15425 | 28148 ft | 418 kts | 343° |
| 2026-05-07 16:02 | 49.83052 | 6.14262 | 27877 ft | 416 kts | 343° |
| 2026-05-07 16:02 | 49.85843 | 6.13105 | 27619 ft | 415 kts | 343° |
| 2026-05-07 16:02 | 49.88642 | 6.12000 | 27346 ft | 414 kts | 345° |
| 2026-05-07 16:03 | 49.91439 | 6.10992 | 27085 ft | 413 kts | 345° |
| 2026-05-07 16:03 | 49.94243 | 6.10031 | 26818 ft | 412 kts | 346° |
| 2026-05-07 16:03 | 49.97036 | 6.09090 | 26556 ft | 410 kts | 346° |
| 2026-05-07 16:03 | 49.99825 | 6.08143 | 26309 ft | 409 kts | 345° |
| 2026-05-07 16:04 | 50.02597 | 6.07184 | 26051 ft | 408 kts | 345° |
| 2026-05-07 16:04 | 50.05358 | 6.06216 | 25803 ft | 406 kts | 345° |
| 2026-05-07 16:04 | 50.08113 | 6.05241 | 25552 ft | 405 kts | 345° |
| 2026-05-07 16:04 | 50.10855 | 6.04266 | 25303 ft | 404 kts | 345° |
| 2026-05-07 16:05 | 50.13589 | 6.03297 | 25060 ft | 402 kts | 345° |
| 2026-05-07 16:05 | 50.16318 | 6.02332 | 24811 ft | 401 kts | 345° |
| 2026-05-07 16:05 | 50.19032 | 6.01371 | 24577 ft | 400 kts | 345° |
| 2026-05-07 16:05 | 50.21742 | 6.00403 | 24328 ft | 399 kts | 345° |
| 2026-05-07 16:06 | 50.24443 | 5.99438 | 24099 ft | 397 kts | 345° |
| 2026-05-07 16:06 | 50.27166 | 5.98467 | 23857 ft | 396 kts | 345° |
| 2026-05-07 16:06 | 50.29848 | 5.97506 | 23622 ft | 395 kts | 345° |
| 2026-05-07 16:06 | 50.32492 | 5.96558 | 23349 ft | 393 kts | 345° |
| 2026-05-07 16:07 | 50.35167 | 5.95596 | 22949 ft | 387 kts | 345° |
| 2026-05-07 16:07 | 50.37772 | 5.94660 | 22482 ft | 382 kts | 345° |
| 2026-05-07 16:07 | 50.40350 | 5.93738 | 22024 ft | 379 kts | 345° |
| 2026-05-07 16:07 | 50.42912 | 5.92824 | 21564 ft | 375 kts | 345° |
| 2026-05-07 16:08 | 50.45444 | 5.91918 | 21104 ft | 372 kts | 345° |
| 2026-05-07 16:08 | 50.47954 | 5.91019 | 20652 ft | 369 kts | 345° |
| 2026-05-07 16:08 | 50.50448 | 5.90121 | 20185 ft | 366 kts | 345° |
| 2026-05-07 16:08 | 50.52927 | 5.89226 | 19710 ft | 365 kts | 345° |
| 2026-05-07 16:09 | 50.55396 | 5.88329 | 19242 ft | 363 kts | 345° |
| 2026-05-07 16:09 | 50.57851 | 5.87437 | 18759 ft | 362 kts | 345° |
| 2026-05-07 16:09 | 50.59476 | 5.86848 | 18442 ft | 361 kts | 345° |
| 2026-05-07 16:09 | 50.62609 | 5.85080 | 17763 ft | 356 kts | 329° |
| 2026-05-07 16:10 | 50.63989 | 5.83702 | 17453 ft | 353 kts | 321° |
| 2026-05-07 16:10 | 50.65773 | 5.81099 | 16999 ft | 348 kts | 309° |
| 2026-05-07 16:10 | 50.67147 | 5.77982 | 16535 ft | 344 kts | 297° |
| 2026-05-07 16:10 | 50.68238 | 5.74596 | 16091 ft | 342 kts | 296° |
| 2026-05-07 16:11 | 50.69297 | 5.71296 | 15660 ft | 340 kts | 296° |
| 2026-05-07 16:11 | 50.70377 | 5.67933 | 15191 ft | 339 kts | 296° |
| 2026-05-07 16:11 | 50.71443 | 5.64613 | 14758 ft | 338 kts | 296° |
| 2026-05-07 16:11 | 50.72501 | 5.61314 | 14321 ft | 337 kts | 296° |
| 2026-05-07 16:12 | 50.73556 | 5.58020 | 13867 ft | 336 kts | 296° |
| 2026-05-07 16:12 | 50.74604 | 5.54740 | 13380 ft | 334 kts | 296° |
| 2026-05-07 16:12 | 50.75646 | 5.51476 | 12926 ft | 331 kts | 296° |
| 2026-05-07 16:12 | 50.76676 | 5.48243 | 12482 ft | 329 kts | 296° |
| 2026-05-07 16:13 | 50.77702 | 5.45019 | 12000 ft | 327 kts | 296° |
| 2026-05-07 16:13 | 50.78714 | 5.41830 | 11548 ft | 324 kts | 296° |
| 2026-05-07 16:13 | 50.79722 | 5.38645 | 11087 ft | 322 kts | 296° |
| 2026-05-07 16:13 | 50.80720 | 5.35485 | 10624 ft | 321 kts | 296° |
| 2026-05-07 16:14 | 50.81707 | 5.32363 | 10386 ft | 312 kts | 296° |
| 2026-05-07 16:14 | 50.82657 | 5.29361 | 10256 ft | 300 kts | 296° |
| 2026-05-07 16:14 | 50.83574 | 5.26466 | 10079 ft | 290 kts | 296° |
| 2026-05-07 16:14 | 50.84467 | 5.23641 | 9950 ft | 285 kts | 296° |
| 2026-05-07 16:15 | 50.85358 | 5.20819 | 9559 ft | 288 kts | 296° |
| 2026-05-07 16:15 | 50.86246 | 5.17996 | 9153 ft | 285 kts | 296° |
| 2026-05-07 16:15 | 50.87121 | 5.15210 | 8635 ft | 280 kts | 296° |
| 2026-05-07 16:15 | 50.88043 | 5.12522 | 8183 ft | 277 kts | 302° |
| 2026-05-07 16:16 | 50.89083 | 5.09953 | 7727 ft | 276 kts | 302° |
| 2026-05-07 16:16 | 50.90112 | 5.07401 | 7233 ft | 276 kts | 302° |
| 2026-05-07 16:16 | 50.91144 | 5.04835 | 6779 ft | 276 kts | 302° |
| 2026-05-07 16:16 | 50.92168 | 5.02283 | 6363 ft | 275 kts | 303° |
| 2026-05-07 16:17 | 50.93187 | 4.99740 | 5961 ft | 272 kts | 303° |
| 2026-05-07 16:17 | 50.94212 | 4.97180 | 5538 ft | 269 kts | 303° |
| 2026-05-07 16:17 | 50.95218 | 4.94670 | 5134 ft | 267 kts | 303° |
| 2026-05-07 16:17 | 50.96192 | 4.92243 | 5007 ft | 254 kts | 303° |
| 2026-05-07 16:18 | 50.97062 | 4.89863 | 4860 ft | 243 kts | 293° |
| 2026-05-07 16:18 | 50.97447 | 4.87331 | 4751 ft | 232 kts | 274° |
| 2026-05-07 16:18 | 50.97302 | 4.84813 | 4504 ft | 230 kts | 255° |
| 2026-05-07 16:18 | 50.96778 | 4.82428 | 4215 ft | 228 kts | 251° |
| 2026-05-07 16:19 | 50.96239 | 4.80066 | 3924 ft | 228 kts | 251° |
| 2026-05-07 16:19 | 50.95700 | 4.77693 | 3600 ft | 228 kts | 251° |
| 2026-05-07 16:19 | 50.95162 | 4.75334 | 3302 ft | 227 kts | 251° |
| 2026-05-07 16:19 | 50.94631 | 4.73003 | 2992 ft | 221 kts | 251° |
| 2026-05-07 16:20 | 50.94115 | 4.70743 | 2705 ft | 216 kts | 251° |
| 2026-05-07 16:20 | 50.93620 | 4.68576 | 2446 ft | 203 kts | 250° |
| 2026-05-07 16:20 | 50.93153 | 4.66537 | 2169 ft | 191 kts | 251° |
| 2026-05-07 16:20 | 50.92715 | 4.64623 | 1905 ft | 178 kts | 251° |
| 2026-05-07 16:21 | 50.92313 | 4.62868 | 1687 ft | 162 kts | 250° |
| 2026-05-07 16:21 | 50.91947 | 4.61248 | 1454 ft | 151 kts | 251° |
| 2026-05-07 16:21 | 50.91605 | 4.59715 | 1197 ft | 145 kts | 251° |
| 2026-05-07 16:21 | 50.91261 | 4.58219 | 1029 ft | 144 kts | 251° |
| 2026-05-07 16:22 | 50.90918 | 4.56742 | 849 ft | 143 kts | 251° |
| 2026-05-07 16:22 | 50.90577 | 4.55273 | 627 ft | 141 kts | 253° |
| 2026-05-07 16:22 | 50.90246 | 4.53816 | 416 ft | 140 kts | 251° |
| 2026-05-07 16:22 | 50.89904 | 4.52370 | 219 ft | 140 kts | 252° |
| 2026-05-07 16:23 | 50.89590 | 4.50996 | 164 ft | 117 kts | 250° |
| 2026-05-07 16:23 | 50.89368 | 4.50048 | 174 ft | 67 kts | 250° |
| 2026-05-07 16:23 | 50.89343 | 4.49741 | 172 ft | 16 kts | 293° |
| 2026-05-07 16:23 | 50.89412 | 4.49585 | 169 ft | 15 kts | 307° |
| 2026-05-07 16:24 | 50.89483 | 4.49433 | 165 ft | 20 kts | 306° |
| 2026-05-07 16:24 | 50.89537 | 4.49320 | 164 ft | 0 kts | 310° |
| 2026-05-07 16:24 | 50.89543 | 4.49310 | 165 ft | 5 kts | 310° |
| 2026-05-07 16:24 | 50.89564 | 4.49269 | 165 ft | 4 kts | 309° |
| 2026-05-07 16:25 | 50.89568 | 4.49262 | 164 ft | 3 kts | 313° |
| 2026-05-07 16:25 | 50.89629 | 4.49256 | 163 ft | 13 kts | 15° |
| 2026-05-07 16:25 | 50.89729 | 4.49297 | 162 ft | 14 kts | 14° |
| 2026-05-07 16:25 | 50.89825 | 4.49337 | 159 ft | 14 kts | 14° |
| 2026-05-07 16:26 | 50.89904 | 4.49368 | 157 ft | 7 kts | 14° |
| 2026-05-07 16:26 | 50.89916 | 4.49372 | 156 ft | 2 kts | 14° |
| 2026-05-07 16:26 | 50.89930 | 4.49378 | 156 ft | 2 kts | 14° |
| 2026-05-07 16:26 | 50.89941 | 4.49382 | 156 ft | 3 kts | 14° |
| 2026-05-07 16:27 | 50.89978 | 4.49397 | 155 ft | 7 kts | 14° |
| 2026-05-07 16:27 | 50.90059 | 4.49428 | 150 ft | 17 kts | 13° |
| 2026-05-07 16:27 | 50.90196 | 4.49484 | 142 ft | 21 kts | 15° |
| 2026-05-07 16:27 | 50.90302 | 4.49527 | 139 ft | 15 kts | 14° |
| 2026-05-07 16:28 | 50.90404 | 4.49570 | 134 ft | 12 kts | 15° |
| 2026-05-07 16:28 | 50.90450 | 4.49490 | 128 ft | 10 kts | 252° |
| 2026-05-07 16:28 | 50.90430 | 4.49418 | 131 ft | 7 kts | 244° |
| 2026-05-07 16:28 | 50.90410 | 4.49353 | 133 ft | 6 kts | 244° |
| 2026-05-07 16:29 | 50.90392 | 4.49294 | 134 ft | 6 kts | 245° |
| 2026-05-07 16:29 | 50.90394 | 4.49220 | 133 ft | 9 kts | 294° |
| 2026-05-07 16:29 | 50.90426 | 4.49132 | 126 ft | 6 kts | 301° |
| 2026-05-07 16:29 | 50.90440 | 4.49095 | 128 ft | 1 kts | 300° |